sensor_id;sensor_type;location;lat;lon;timestamp;P1;durP1;ratioP1;P2;durP2;ratioP2
53549;SDS011;67273;52.914;-0.982;2023-03-03T00:00:10;0.50;;;0.50;;
53549;SDS011;67273;52.914;-0.982;2023-03-03T00:02:40;0.75;;;0.70;;
53549;SDS011;67273;52.914;-0.982;2023-03-03T00:05:06;1.00;;;0.70;;
53549;SDS011;67273;52.914;-0.982;2023-03-03T00:07:32;1.05;;;0.60;;
53549;SDS011;67273;52.914;-0.982;2023-03-03T00:09:58;0.70;;;0.70;;
53549;SDS011;67273;52.914;-0.982;2023-03-03T00:12:25;0.82;;;0.63;;
53549;SDS011;67273;52.914;-0.982;2023-03-03T00:14:52;0.95;;;0.73;;
53549;SDS011;67273;52.914;-0.982;2023-03-03T00:17:20;0.68;;;0.68;;
53549;SDS011;67273;52.914;-0.982;2023-03-03T00:19:49;0.95;;;0.70;;
53549;SDS011;67273;52.914;-0.982;2023-03-03T00:22:28;1.95;;;0.93;;
53549;SDS011;67273;52.914;-0.982;2023-03-03T00:24:57;1.05;;;0.60;;
53549;SDS011;67273;52.914;-0.982;2023-03-03T00:27:26;0.60;;;0.60;;
53549;SDS011;67273;52.914;-0.982;2023-03-03T00:29:54;0.60;;;0.57;;
53549;SDS011;67273;52.914;-0.982;2023-03-03T00:32:22;0.90;;;0.50;;
53549;SDS011;67273;52.914;-0.982;2023-03-03T00:34:52;0.90;;;0.57;;
53549;SDS011;67273;52.914;-0.982;2023-03-03T00:37:28;0.60;;;0.60;;
53549;SDS011;67273;52.914;-0.982;2023-03-03T00:39:58;0.43;;;0.40;;
53549;SDS011;67273;52.914;-0.982;2023-03-03T00:42:36;0.60;;;0.60;;
53549;SDS011;67273;52.914;-0.982;2023-03-03T00:45:04;1.00;;;0.70;;
53549;SDS011;67273;52.914;-0.982;2023-03-03T00:47:47;0.73;;;0.70;;
53549;SDS011;67273;52.914;-0.982;2023-03-03T00:50:20;1.05;;;0.80;;
53549;SDS011;67273;52.914;-0.982;2023-03-03T00:52:52;0.60;;;0.60;;
53549;SDS011;67273;52.914;-0.982;2023-03-03T00:55:27;1.17;;;0.70;;
53549;SDS011;67273;52.914;-0.982;2023-03-03T00:57:53;0.75;;;0.65;;
53549;SDS011;67273;52.914;-0.982;2023-03-03T01:00:23;0.50;;;0.50;;
53549;SDS011;67273;52.914;-0.982;2023-03-03T01:02:49;0.82;;;0.68;;
53549;SDS011;67273;52.914;-0.982;2023-03-03T01:05:17;0.73;;;0.68;;
53549;SDS011;67273;52.914;-0.982;2023-03-03T01:07:44;0.60;;;0.60;;
53549;SDS011;67273;52.914;-0.982;2023-03-03T01:10:10;1.58;;;0.82;;
53549;SDS011;67273;52.914;-0.982;2023-03-03T01:12:36;1.00;;;0.55;;
53549;SDS011;67273;52.914;-0.982;2023-03-03T01:15:03;1.98;;;0.70;;
53549;SDS011;67273;52.914;-0.982;2023-03-03T01:17:29;0.82;;;0.75;;
53549;SDS011;67273;52.914;-0.982;2023-03-03T01:19:55;0.43;;;0.43;;
53549;SDS011;67273;52.914;-0.982;2023-03-03T01:22:22;1.30;;;0.90;;
53549;SDS011;67273;52.914;-0.982;2023-03-03T01:24:48;0.50;;;0.50;;
53549;SDS011;67273;52.914;-0.982;2023-03-03T01:27:14;1.40;;;0.77;;
53549;SDS011;67273;52.914;-0.982;2023-03-03T01:29:40;0.50;;;0.50;;
53549;SDS011;67273;52.914;-0.982;2023-03-03T01:32:06;1.10;;;0.65;;
53549;SDS011;67273;52.914;-0.982;2023-03-03T01:34:31;1.08;;;0.68;;
53549;SDS011;67273;52.914;-0.982;2023-03-03T01:36:58;1.27;;;0.68;;
53549;SDS011;67273;52.914;-0.982;2023-03-03T01:39:26;0.60;;;0.60;;
53549;SDS011;67273;52.914;-0.982;2023-03-03T01:41:52;0.60;;;0.50;;
53549;SDS011;67273;52.914;-0.982;2023-03-03T01:44:18;1.25;;;0.80;;
53549;SDS011;67273;52.914;-0.982;2023-03-03T01:46:45;0.95;;;0.50;;
53549;SDS011;67273;52.914;-0.982;2023-03-03T01:49:16;1.05;;;0.60;;
53549;SDS011;67273;52.914;-0.982;2023-03-03T01:51:47;0.60;;;0.60;;
53549;SDS011;67273;52.914;-0.982;2023-03-03T01:54:17;0.55;;;0.55;;
53549;SDS011;67273;52.914;-0.982;2023-03-03T01:56:49;0.57;;;0.57;;
53549;SDS011;67273;52.914;-0.982;2023-03-03T01:59:19;0.70;;;0.60;;
53549;SDS011;67273;52.914;-0.982;2023-03-03T02:01:47;0.60;;;0.60;;
53549;SDS011;67273;52.914;-0.982;2023-03-03T02:04:14;1.08;;;0.60;;
53549;SDS011;67273;52.914;-0.982;2023-03-03T02:06:40;0.75;;;0.50;;
53549;SDS011;67273;52.914;-0.982;2023-03-03T02:09:10;0.68;;;0.60;;
53549;SDS011;67273;52.914;-0.982;2023-03-03T02:11:43;0.30;;;0.30;;
53549;SDS011;67273;52.914;-0.982;2023-03-03T02:14:11;0.52;;;0.52;;
53549;SDS011;67273;52.914;-0.982;2023-03-03T02:16:41;0.52;;;0.50;;
53549;SDS011;67273;52.914;-0.982;2023-03-03T02:19:15;0.60;;;0.60;;
53549;SDS011;67273;52.914;-0.982;2023-03-03T02:21:49;0.95;;;0.60;;
53549;SDS011;67273;52.914;-0.982;2023-03-03T02:24:19;0.88;;;0.60;;
53549;SDS011;67273;52.914;-0.982;2023-03-03T02:26:51;0.60;;;0.60;;
53549;SDS011;67273;52.914;-0.982;2023-03-03T02:29:18;0.88;;;0.60;;
53549;SDS011;67273;52.914;-0.982;2023-03-03T02:31:46;0.60;;;0.60;;
53549;SDS011;67273;52.914;-0.982;2023-03-03T02:34:13;0.73;;;0.60;;
53549;SDS011;67273;52.914;-0.982;2023-03-03T02:36:42;1.05;;;0.52;;
53549;SDS011;67273;52.914;-0.982;2023-03-03T02:39:12;0.73;;;0.60;;
53549;SDS011;67273;52.914;-0.982;2023-03-03T02:41:48;0.60;;;0.60;;
53549;SDS011;67273;52.914;-0.982;2023-03-03T02:44:28;0.32;;;0.32;;
53549;SDS011;67273;52.914;-0.982;2023-03-03T02:46:58;0.68;;;0.60;;
53549;SDS011;67273;52.914;-0.982;2023-03-03T02:49:27;1.00;;;0.60;;
53549;SDS011;67273;52.914;-0.982;2023-03-03T02:52:00;0.98;;;0.65;;
53549;SDS011;67273;52.914;-0.982;2023-03-03T02:54:30;0.73;;;0.70;;
53549;SDS011;67273;52.914;-0.982;2023-03-03T02:57:03;1.02;;;0.80;;
53549;SDS011;67273;52.914;-0.982;2023-03-03T02:59:32;0.93;;;0.77;;
53549;SDS011;67273;52.914;-0.982;2023-03-03T03:02:08;0.77;;;0.77;;
53549;SDS011;67273;52.914;-0.982;2023-03-03T03:04:36;0.90;;;0.75;;
53549;SDS011;67273;52.914;-0.982;2023-03-03T03:07:05;1.08;;;0.80;;
53549;SDS011;67273;52.914;-0.982;2023-03-03T03:09:39;0.90;;;0.80;;
53549;SDS011;67273;52.914;-0.982;2023-03-03T03:12:13;1.65;;;1.00;;
53549;SDS011;67273;52.914;-0.982;2023-03-03T03:14:49;1.85;;;1.20;;
53549;SDS011;67273;52.914;-0.982;2023-03-03T03:17:18;1.58;;;1.40;;
53549;SDS011;67273;52.914;-0.982;2023-03-03T03:19:46;1.63;;;1.27;;
53549;SDS011;67273;52.914;-0.982;2023-03-03T03:22:14;1.80;;;1.23;;
53549;SDS011;67273;52.914;-0.982;2023-03-03T03:24:42;1.75;;;1.23;;
53549;SDS011;67273;52.914;-0.982;2023-03-03T03:27:12;1.25;;;1.15;;
53549;SDS011;67273;52.914;-0.982;2023-03-03T03:29:40;1.63;;;1.30;;
53549;SDS011;67273;52.914;-0.982;2023-03-03T03:32:07;2.67;;;1.60;;
53549;SDS011;67273;52.914;-0.982;2023-03-03T03:34:35;1.83;;;1.40;;
53549;SDS011;67273;52.914;-0.982;2023-03-03T03:37:05;2.28;;;1.45;;
53549;SDS011;67273;52.914;-0.982;2023-03-03T03:39:35;2.55;;;2.00;;
53549;SDS011;67273;52.914;-0.982;2023-03-03T03:42:04;1.88;;;1.65;;
53549;SDS011;67273;52.914;-0.982;2023-03-03T03:44:35;1.67;;;1.35;;
53549;SDS011;67273;52.914;-0.982;2023-03-03T03:47:04;3.15;;;1.90;;
53549;SDS011;67273;52.914;-0.982;2023-03-03T03:49:34;2.42;;;1.63;;
53549;SDS011;67273;52.914;-0.982;2023-03-03T03:52:03;2.33;;;1.60;;
53549;SDS011;67273;52.914;-0.982;2023-03-03T03:54:33;2.55;;;1.80;;
53549;SDS011;67273;52.914;-0.982;2023-03-03T03:57:00;3.38;;;1.50;;
53549;SDS011;67273;52.914;-0.982;2023-03-03T03:59:29;2.10;;;1.52;;
53549;SDS011;67273;52.914;-0.982;2023-03-03T04:02:00;2.70;;;1.55;;
53549;SDS011;67273;52.914;-0.982;2023-03-03T04:04:28;2.17;;;1.45;;
53549;SDS011;67273;52.914;-0.982;2023-03-03T04:06:54;2.17;;;1.40;;
53549;SDS011;67273;52.914;-0.982;2023-03-03T04:09:20;1.90;;;1.30;;
53549;SDS011;67273;52.914;-0.982;2023-03-03T04:11:46;2.05;;;1.50;;
53549;SDS011;67273;52.914;-0.982;2023-03-03T04:14:13;2.00;;;1.48;;
53549;SDS011;67273;52.914;-0.982;2023-03-03T04:16:39;2.25;;;1.35;;
53549;SDS011;67273;52.914;-0.982;2023-03-03T04:19:06;1.63;;;1.30;;
53549;SDS011;67273;52.914;-0.982;2023-03-03T04:21:34;1.60;;;1.20;;
53549;SDS011;67273;52.914;-0.982;2023-03-03T04:24:01;1.40;;;1.23;;
53549;SDS011;67273;52.914;-0.982;2023-03-03T04:26:27;1.90;;;1.33;;
53549;SDS011;67273;52.914;-0.982;2023-03-03T04:28:55;1.25;;;1.15;;
53549;SDS011;67273;52.914;-0.982;2023-03-03T04:31:22;1.75;;;1.20;;
53549;SDS011;67273;52.914;-0.982;2023-03-03T04:33:48;1.55;;;1.10;;
53549;SDS011;67273;52.914;-0.982;2023-03-03T04:36:15;1.27;;;1.10;;
53549;SDS011;67273;52.914;-0.982;2023-03-03T04:38:41;1.27;;;1.00;;
53549;SDS011;67273;52.914;-0.982;2023-03-03T04:41:07;1.30;;;1.10;;
53549;SDS011;67273;52.914;-0.982;2023-03-03T04:43:37;1.60;;;1.00;;
53549;SDS011;67273;52.914;-0.982;2023-03-03T04:46:03;1.08;;;0.98;;
53549;SDS011;67273;52.914;-0.982;2023-03-03T04:48:30;0.98;;;0.80;;
53549;SDS011;67273;52.914;-0.982;2023-03-03T04:50:56;0.90;;;0.90;;
53549;SDS011;67273;52.914;-0.982;2023-03-03T04:53:27;1.00;;;0.90;;
53549;SDS011;67273;52.914;-0.982;2023-03-03T04:56:01;1.13;;;1.00;;
53549;SDS011;67273;52.914;-0.982;2023-03-03T04:58:29;1.27;;;0.93;;
53549;SDS011;67273;52.914;-0.982;2023-03-03T05:00:56;0.80;;;0.80;;
53549;SDS011;67273;52.914;-0.982;2023-03-03T05:03:27;1.15;;;0.98;;
53549;SDS011;67273;52.914;-0.982;2023-03-03T05:05:56;0.98;;;0.65;;
53549;SDS011;67273;52.914;-0.982;2023-03-03T05:08:23;1.35;;;1.08;;
53549;SDS011;67273;52.914;-0.982;2023-03-03T05:10:53;1.20;;;0.85;;
53549;SDS011;67273;52.914;-0.982;2023-03-03T05:13:21;1.08;;;0.80;;
53549;SDS011;67273;52.914;-0.982;2023-03-03T05:15:50;0.65;;;0.60;;
53549;SDS011;67273;52.914;-0.982;2023-03-03T05:18:21;0.73;;;0.73;;
53549;SDS011;67273;52.914;-0.982;2023-03-03T05:20:51;1.13;;;0.85;;
53549;SDS011;67273;52.914;-0.982;2023-03-03T05:23:18;1.05;;;0.98;;
53549;SDS011;67273;52.914;-0.982;2023-03-03T05:25:45;1.00;;;0.95;;
53549;SDS011;67273;52.914;-0.982;2023-03-03T05:28:13;1.40;;;0.90;;
53549;SDS011;67273;52.914;-0.982;2023-03-03T05:30:39;0.82;;;0.77;;
53549;SDS011;67273;52.914;-0.982;2023-03-03T05:33:05;1.40;;;1.13;;
53549;SDS011;67273;52.914;-0.982;2023-03-03T05:35:32;0.93;;;0.93;;
53549;SDS011;67273;52.914;-0.982;2023-03-03T05:37:59;0.95;;;0.90;;
53549;SDS011;67273;52.914;-0.982;2023-03-03T05:40:28;1.38;;;1.27;;
53549;SDS011;67273;52.914;-0.982;2023-03-03T05:42:57;1.25;;;1.13;;
53549;SDS011;67273;52.914;-0.982;2023-03-03T05:45:26;0.93;;;0.93;;
53549;SDS011;67273;52.914;-0.982;2023-03-03T05:47:52;1.02;;;1.00;;
53549;SDS011;67273;52.914;-0.982;2023-03-03T05:50:18;1.20;;;1.10;;
53549;SDS011;67273;52.914;-0.982;2023-03-03T05:52:47;1.20;;;1.10;;
53549;SDS011;67273;52.914;-0.982;2023-03-03T05:55:14;1.83;;;1.25;;
53549;SDS011;67273;52.914;-0.982;2023-03-03T05:57:40;1.17;;;1.10;;
53549;SDS011;67273;52.914;-0.982;2023-03-03T06:00:07;1.15;;;1.00;;
53549;SDS011;67273;52.914;-0.982;2023-03-03T06:05:08;1.40;;;1.30;;
53549;SDS011;67273;52.914;-0.982;2023-03-03T06:07:36;1.50;;;1.27;;
53549;SDS011;67273;52.914;-0.982;2023-03-03T06:10:02;1.48;;;1.30;;
53549;SDS011;67273;52.914;-0.982;2023-03-03T06:12:32;1.48;;;1.38;;
53549;SDS011;67273;52.914;-0.982;2023-03-03T06:14:59;1.52;;;1.23;;
53549;SDS011;67273;52.914;-0.982;2023-03-03T06:17:28;1.30;;;1.20;;
53549;SDS011;67273;52.914;-0.982;2023-03-03T06:19:58;1.35;;;1.05;;
53549;SDS011;67273;52.914;-0.982;2023-03-03T06:22:25;1.50;;;1.40;;
53549;SDS011;67273;52.914;-0.982;2023-03-03T06:24:56;1.33;;;1.20;;
53549;SDS011;67273;52.914;-0.982;2023-03-03T06:27:22;1.55;;;1.30;;
53549;SDS011;67273;52.914;-0.982;2023-03-03T06:29:47;1.40;;;1.23;;
53549;SDS011;67273;52.914;-0.982;2023-03-03T06:32:16;1.48;;;1.38;;
53549;SDS011;67273;52.914;-0.982;2023-03-03T06:34:44;1.77;;;1.50;;
53549;SDS011;67273;52.914;-0.982;2023-03-03T06:37:12;1.42;;;1.33;;
53549;SDS011;67273;52.914;-0.982;2023-03-03T06:39:37;1.40;;;1.30;;
53549;SDS011;67273;52.914;-0.982;2023-03-03T06:42:03;1.50;;;1.38;;
53549;SDS011;67273;52.914;-0.982;2023-03-03T06:44:29;1.92;;;1.38;;
53549;SDS011;67273;52.914;-0.982;2023-03-03T06:46:55;1.27;;;1.23;;
53549;SDS011;67273;52.914;-0.982;2023-03-03T06:49:22;1.23;;;1.13;;
53549;SDS011;67273;52.914;-0.982;2023-03-03T06:51:49;1.17;;;1.17;;
53549;SDS011;67273;52.914;-0.982;2023-03-03T06:54:18;1.75;;;1.30;;
53549;SDS011;67273;52.914;-0.982;2023-03-03T06:56:47;1.23;;;1.15;;
53549;SDS011;67273;52.914;-0.982;2023-03-03T06:59:20;1.40;;;1.30;;
53549;SDS011;67273;52.914;-0.982;2023-03-03T07:01:50;1.35;;;1.25;;
53549;SDS011;67273;52.914;-0.982;2023-03-03T07:04:21;1.58;;;1.42;;
53549;SDS011;67273;52.914;-0.982;2023-03-03T07:06:53;1.35;;;1.15;;
53549;SDS011;67273;52.914;-0.982;2023-03-03T07:09:23;1.50;;;1.40;;
53549;SDS011;67273;52.914;-0.982;2023-03-03T07:11:50;1.70;;;1.20;;
53549;SDS011;67273;52.914;-0.982;2023-03-03T07:14:17;1.98;;;1.42;;
53549;SDS011;67273;52.914;-0.982;2023-03-03T07:16:44;1.55;;;1.40;;
53549;SDS011;67273;52.914;-0.982;2023-03-03T07:19:15;1.30;;;1.20;;
53549;SDS011;67273;52.914;-0.982;2023-03-03T07:21:46;1.27;;;1.20;;
53549;SDS011;67273;52.914;-0.982;2023-03-03T07:24:18;1.40;;;1.30;;
53549;SDS011;67273;52.914;-0.982;2023-03-03T07:26:55;1.65;;;1.20;;
53549;SDS011;67273;52.914;-0.982;2023-03-03T07:29:33;1.48;;;1.20;;
53549;SDS011;67273;52.914;-0.982;2023-03-03T07:32:12;1.30;;;1.20;;
53549;SDS011;67273;52.914;-0.982;2023-03-03T07:34:53;1.45;;;1.35;;
53549;SDS011;67273;52.914;-0.982;2023-03-03T07:37:21;1.60;;;1.20;;
53549;SDS011;67273;52.914;-0.982;2023-03-03T07:39:56;1.55;;;1.27;;
53549;SDS011;67273;52.914;-0.982;2023-03-03T07:42:25;1.77;;;1.50;;
53549;SDS011;67273;52.914;-0.982;2023-03-03T07:44:59;1.83;;;1.30;;
53549;SDS011;67273;52.914;-0.982;2023-03-03T07:47:29;1.50;;;1.40;;
53549;SDS011;67273;52.914;-0.982;2023-03-03T07:49:59;1.98;;;1.50;;
53549;SDS011;67273;52.914;-0.982;2023-03-03T07:52:38;1.52;;;1.35;;
53549;SDS011;67273;52.914;-0.982;2023-03-03T07:55:19;1.50;;;1.30;;
53549;SDS011;67273;52.914;-0.982;2023-03-03T07:57:53;2.58;;;1.60;;
53549;SDS011;67273;52.914;-0.982;2023-03-03T08:03:34;1.70;;;1.25;;
53549;SDS011;67273;52.914;-0.982;2023-03-03T08:06:01;1.73;;;1.30;;
53549;SDS011;67273;52.914;-0.982;2023-03-03T08:08:46;2.67;;;1.58;;
53549;SDS011;67273;52.914;-0.982;2023-03-03T08:11:13;2.00;;;1.30;;
53549;SDS011;67273;52.914;-0.982;2023-03-03T08:13:40;1.50;;;1.27;;
53549;SDS011;67273;52.914;-0.982;2023-03-03T08:16:20;1.40;;;1.30;;
53549;SDS011;67273;52.914;-0.982;2023-03-03T08:18:54;1.83;;;1.45;;
53549;SDS011;67273;52.914;-0.982;2023-03-03T08:21:25;9.70;;;2.45;;
53549;SDS011;67273;52.914;-0.982;2023-03-03T08:23:51;9.02;;;2.70;;
53549;SDS011;67273;52.914;-0.982;2023-03-03T08:26:19;8.75;;;3.10;;
53549;SDS011;67273;52.914;-0.982;2023-03-03T08:28:47;8.40;;;3.30;;
53549;SDS011;67273;52.914;-0.982;2023-03-03T08:31:14;6.78;;;3.20;;
53549;SDS011;67273;52.914;-0.982;2023-03-03T08:33:41;5.00;;;2.83;;
53549;SDS011;67273;52.914;-0.982;2023-03-03T08:36:08;6.72;;;3.20;;
53549;SDS011;67273;52.914;-0.982;2023-03-03T08:38:35;8.00;;;3.28;;
53549;SDS011;67273;52.914;-0.982;2023-03-03T08:41:01;6.18;;;2.80;;
53549;SDS011;67273;52.914;-0.982;2023-03-03T08:43:29;7.85;;;2.92;;
53549;SDS011;67273;52.914;-0.982;2023-03-03T08:45:56;4.55;;;2.63;;
53549;SDS011;67273;52.914;-0.982;2023-03-03T08:48:23;5.18;;;2.70;;
53549;SDS011;67273;52.914;-0.982;2023-03-03T08:50:50;4.47;;;2.53;;
53549;SDS011;67273;52.914;-0.982;2023-03-03T08:53:16;4.45;;;2.45;;
53549;SDS011;67273;52.914;-0.982;2023-03-03T08:55:43;9.10;;;2.90;;
53549;SDS011;67273;52.914;-0.982;2023-03-03T08:58:10;5.30;;;2.30;;
53549;SDS011;67273;52.914;-0.982;2023-03-03T09:00:37;4.57;;;2.13;;
53549;SDS011;67273;52.914;-0.982;2023-03-03T09:03:03;5.22;;;2.80;;
53549;SDS011;67273;52.914;-0.982;2023-03-03T09:05:31;6.25;;;2.53;;
53549;SDS011;67273;52.914;-0.982;2023-03-03T09:07:58;7.18;;;2.63;;
53549;SDS011;67273;52.914;-0.982;2023-03-03T09:10:26;4.70;;;2.55;;
53549;SDS011;67273;52.914;-0.982;2023-03-03T09:12:53;6.43;;;2.40;;
53549;SDS011;67273;52.914;-0.982;2023-03-03T09:15:23;5.32;;;2.30;;
53549;SDS011;67273;52.914;-0.982;2023-03-03T09:17:54;3.65;;;2.13;;
53549;SDS011;67273;52.914;-0.982;2023-03-03T09:20:27;3.53;;;2.15;;
53549;SDS011;67273;52.914;-0.982;2023-03-03T09:22:58;5.25;;;2.50;;
53549;SDS011;67273;52.914;-0.982;2023-03-03T09:25:26;4.88;;;2.63;;
53549;SDS011;67273;52.914;-0.982;2023-03-03T09:27:57;6.35;;;2.72;;
53549;SDS011;67273;52.914;-0.982;2023-03-03T09:33:21;5.43;;;2.60;;
53549;SDS011;67273;52.914;-0.982;2023-03-03T09:35:51;5.60;;;2.45;;
53549;SDS011;67273;52.914;-0.982;2023-03-03T09:38:24;5.00;;;2.38;;
53549;SDS011;67273;52.914;-0.982;2023-03-03T09:40:55;3.28;;;2.30;;
53549;SDS011;67273;52.914;-0.982;2023-03-03T09:43:41;4.05;;;2.25;;
53549;SDS011;67273;52.914;-0.982;2023-03-03T09:46:17;4.03;;;2.13;;
53549;SDS011;67273;52.914;-0.982;2023-03-03T09:48:51;3.70;;;1.98;;
53549;SDS011;67273;52.914;-0.982;2023-03-03T09:51:30;3.58;;;2.17;;
53549;SDS011;67273;52.914;-0.982;2023-03-03T09:54:07;3.80;;;2.10;;
53549;SDS011;67273;52.914;-0.982;2023-03-03T09:56:50;3.25;;;2.00;;
53549;SDS011;67273;52.914;-0.982;2023-03-03T09:59:31;3.63;;;2.17;;
53549;SDS011;67273;52.914;-0.982;2023-03-03T10:02:18;4.15;;;2.13;;
53549;SDS011;67273;52.914;-0.982;2023-03-03T10:07:32;4.43;;;2.05;;
53549;SDS011;67273;52.914;-0.982;2023-03-03T10:10:13;3.50;;;2.30;;
53549;SDS011;67273;52.914;-0.982;2023-03-03T10:12:47;4.63;;;2.30;;
53549;SDS011;67273;52.914;-0.982;2023-03-03T10:15:26;3.90;;;2.08;;
53549;SDS011;67273;52.914;-0.982;2023-03-03T10:18:01;5.78;;;2.10;;
53549;SDS011;67273;52.914;-0.982;2023-03-03T10:20:38;3.50;;;1.77;;
53549;SDS011;67273;52.914;-0.982;2023-03-03T10:23:16;6.00;;;1.95;;
53549;SDS011;67273;52.914;-0.982;2023-03-03T10:25:48;5.00;;;2.28;;
53549;SDS011;67273;52.914;-0.982;2023-03-03T10:28:24;3.28;;;1.88;;
53549;SDS011;67273;52.914;-0.982;2023-03-03T10:31:11;3.03;;;1.85;;
53549;SDS011;67273;52.914;-0.982;2023-03-03T10:33:48;3.85;;;1.95;;
53549;SDS011;67273;52.914;-0.982;2023-03-03T10:39:20;5.75;;;1.80;;
53549;SDS011;67273;52.914;-0.982;2023-03-03T10:44:38;6.82;;;2.10;;
53549;SDS011;67273;52.914;-0.982;2023-03-03T10:47:20;6.75;;;1.77;;
53549;SDS011;67273;52.914;-0.982;2023-03-03T10:50:02;4.85;;;1.83;;
53549;SDS011;67273;52.914;-0.982;2023-03-03T10:52:43;3.17;;;1.90;;
53549;SDS011;67273;52.914;-0.982;2023-03-03T10:55:25;9.73;;;1.95;;
53549;SDS011;67273;52.914;-0.982;2023-03-03T10:58:02;5.47;;;1.90;;
53549;SDS011;67273;52.914;-0.982;2023-03-03T11:00:38;5.20;;;1.65;;
53549;SDS011;67273;52.914;-0.982;2023-03-03T11:03:17;4.65;;;2.40;;
53549;SDS011;67273;52.914;-0.982;2023-03-03T11:06:00;4.53;;;2.03;;
53549;SDS011;67273;52.914;-0.982;2023-03-03T11:08:32;3.92;;;2.38;;
53549;SDS011;67273;52.914;-0.982;2023-03-03T11:11:07;4.30;;;2.42;;
53549;SDS011;67273;52.914;-0.982;2023-03-03T11:13:41;4.35;;;2.15;;
53549;SDS011;67273;52.914;-0.982;2023-03-03T11:16:25;3.53;;;1.90;;
53549;SDS011;67273;52.914;-0.982;2023-03-03T11:19:01;5.97;;;2.10;;
53549;SDS011;67273;52.914;-0.982;2023-03-03T11:21:37;4.85;;;1.92;;
53549;SDS011;67273;52.914;-0.982;2023-03-03T11:24:16;6.75;;;1.90;;
53549;SDS011;67273;52.914;-0.982;2023-03-03T11:26:54;4.88;;;1.75;;
53549;SDS011;67273;52.914;-0.982;2023-03-03T11:29:35;4.47;;;1.88;;
53549;SDS011;67273;52.914;-0.982;2023-03-03T11:32:16;5.10;;;1.77;;
53549;SDS011;67273;52.914;-0.982;2023-03-03T11:34:53;3.38;;;1.63;;
53549;SDS011;67273;52.914;-0.982;2023-03-03T11:37:28;3.13;;;1.50;;
53549;SDS011;67273;52.914;-0.982;2023-03-03T11:40:08;3.10;;;1.60;;
53549;SDS011;67273;52.914;-0.982;2023-03-03T11:42:41;2.58;;;1.60;;
53549;SDS011;67273;52.914;-0.982;2023-03-03T11:45:16;4.60;;;1.60;;
53549;SDS011;67273;52.914;-0.982;2023-03-03T11:47:44;1.95;;;1.50;;
53549;SDS011;67273;52.914;-0.982;2023-03-03T11:52:46;8.35;;;2.00;;
53549;SDS011;67273;52.914;-0.982;2023-03-03T11:55:21;6.50;;;1.67;;
53549;SDS011;67273;52.914;-0.982;2023-03-03T11:57:52;3.90;;;1.70;;
53549;SDS011;67273;52.914;-0.982;2023-03-03T12:05:51;3.33;;;1.70;;
53549;SDS011;67273;52.914;-0.982;2023-03-03T12:08:34;3.35;;;1.38;;
53549;SDS011;67273;52.914;-0.982;2023-03-03T12:11:08;4.68;;;1.70;;
53549;SDS011;67273;52.914;-0.982;2023-03-03T12:13:44;2.25;;;1.40;;
53549;SDS011;67273;52.914;-0.982;2023-03-03T12:16:22;3.65;;;1.40;;
53549;SDS011;67273;52.914;-0.982;2023-03-03T12:19:02;3.22;;;1.42;;
53549;SDS011;67273;52.914;-0.982;2023-03-03T12:21:43;3.47;;;1.40;;
53549;SDS011;67273;52.914;-0.982;2023-03-03T12:24:25;2.03;;;1.50;;
53549;SDS011;67273;52.914;-0.982;2023-03-03T12:27:06;5.30;;;1.75;;
53549;SDS011;67273;52.914;-0.982;2023-03-03T12:29:46;3.00;;;1.40;;
53549;SDS011;67273;52.914;-0.982;2023-03-03T12:32:27;2.00;;;1.40;;
53549;SDS011;67273;52.914;-0.982;2023-03-03T12:35:02;3.38;;;1.38;;
53549;SDS011;67273;52.914;-0.982;2023-03-03T12:37:40;1.48;;;1.20;;
53549;SDS011;67273;52.914;-0.982;2023-03-03T12:40:13;1.55;;;1.17;;
53549;SDS011;67273;52.914;-0.982;2023-03-03T12:42:58;1.98;;;1.25;;
53549;SDS011;67273;52.914;-0.982;2023-03-03T12:45:34;2.30;;;1.10;;
53549;SDS011;67273;52.914;-0.982;2023-03-03T12:48:11;1.90;;;1.00;;
53549;SDS011;67273;52.914;-0.982;2023-03-03T12:50:42;3.20;;;1.08;;
53549;SDS011;67273;52.914;-0.982;2023-03-03T12:53:23;1.23;;;1.10;;
53549;SDS011;67273;52.914;-0.982;2023-03-03T12:55:55;2.40;;;1.17;;
53549;SDS011;67273;52.914;-0.982;2023-03-03T12:58:32;1.30;;;1.20;;
53549;SDS011;67273;52.914;-0.982;2023-03-03T13:01:09;1.65;;;1.40;;
53549;SDS011;67273;52.914;-0.982;2023-03-03T13:03:44;2.63;;;1.30;;
53549;SDS011;67273;52.914;-0.982;2023-03-03T13:06:21;2.65;;;1.20;;
53549;SDS011;67273;52.914;-0.982;2023-03-03T13:11:26;2.20;;;1.10;;
53549;SDS011;67273;52.914;-0.982;2023-03-03T13:14:03;2.13;;;1.00;;
53549;SDS011;67273;52.914;-0.982;2023-03-03T13:16:42;3.35;;;1.10;;
53549;SDS011;67273;52.914;-0.982;2023-03-03T13:19:14;1.70;;;1.13;;
53549;SDS011;67273;52.914;-0.982;2023-03-03T13:21:46;1.83;;;1.00;;
53549;SDS011;67273;52.914;-0.982;2023-03-03T13:24:16;2.33;;;1.10;;
53549;SDS011;67273;52.914;-0.982;2023-03-03T13:26:46;2.33;;;1.08;;
53549;SDS011;67273;52.914;-0.982;2023-03-03T13:29:19;1.25;;;1.15;;
53549;SDS011;67273;52.914;-0.982;2023-03-03T13:31:52;1.45;;;0.90;;
53549;SDS011;67273;52.914;-0.982;2023-03-03T13:34:23;0.90;;;0.88;;
53549;SDS011;67273;52.914;-0.982;2023-03-03T13:36:56;1.23;;;0.93;;
53549;SDS011;67273;52.914;-0.982;2023-03-03T13:39:28;1.52;;;0.95;;
53549;SDS011;67273;52.914;-0.982;2023-03-03T13:41:58;1.08;;;0.90;;
53549;SDS011;67273;52.914;-0.982;2023-03-03T13:44:29;1.45;;;0.95;;
53549;SDS011;67273;52.914;-0.982;2023-03-03T13:47:02;1.42;;;1.00;;
53549;SDS011;67273;52.914;-0.982;2023-03-03T13:49:44;1.40;;;0.98;;
53549;SDS011;67273;52.914;-0.982;2023-03-03T13:52:20;2.15;;;1.10;;
53549;SDS011;67273;52.914;-0.982;2023-03-03T13:54:52;4.25;;;1.05;;
53549;SDS011;67273;52.914;-0.982;2023-03-03T13:57:42;1.13;;;0.93;;
53549;SDS011;67273;52.914;-0.982;2023-03-03T14:00:28;4.72;;;1.10;;
53549;SDS011;67273;52.914;-0.982;2023-03-03T14:03:02;1.95;;;0.90;;
53549;SDS011;67273;52.914;-0.982;2023-03-03T14:05:48;1.85;;;1.20;;
53549;SDS011;67273;52.914;-0.982;2023-03-03T14:08:17;1.40;;;1.00;;
53549;SDS011;67273;52.914;-0.982;2023-03-03T14:10:54;1.92;;;1.02;;
53549;SDS011;67273;52.914;-0.982;2023-03-03T14:13:30;1.42;;;0.70;;
53549;SDS011;67273;52.914;-0.982;2023-03-03T14:16:08;2.05;;;1.10;;
53549;SDS011;67273;52.914;-0.982;2023-03-03T14:18:39;1.00;;;0.88;;
53549;SDS011;67273;52.914;-0.982;2023-03-03T14:21:19;0.80;;;0.80;;
53549;SDS011;67273;52.914;-0.982;2023-03-03T14:23:52;1.25;;;0.90;;
53549;SDS011;67273;52.914;-0.982;2023-03-03T14:26:23;4.28;;;0.85;;
53549;SDS011;67273;52.914;-0.982;2023-03-03T14:28:50;3.22;;;0.90;;
53549;SDS011;67273;52.914;-0.982;2023-03-03T14:31:29;1.40;;;1.20;;
53549;SDS011;67273;52.914;-0.982;2023-03-03T14:37:07;1.25;;;1.00;;
53549;SDS011;67273;52.914;-0.982;2023-03-03T14:39:47;2.60;;;1.00;;
53549;SDS011;67273;52.914;-0.982;2023-03-03T14:42:29;2.00;;;1.30;;
53549;SDS011;67273;52.914;-0.982;2023-03-03T14:44:58;2.25;;;1.20;;
53549;SDS011;67273;52.914;-0.982;2023-03-03T14:47:43;2.25;;;1.00;;
53549;SDS011;67273;52.914;-0.982;2023-03-03T14:50:26;1.92;;;1.08;;
53549;SDS011;67273;52.914;-0.982;2023-03-03T14:53:03;3.55;;;1.23;;
53549;SDS011;67273;52.914;-0.982;2023-03-03T14:55:35;1.08;;;0.90;;
53549;SDS011;67273;52.914;-0.982;2023-03-03T14:58:03;1.50;;;1.10;;
53549;SDS011;67273;52.914;-0.982;2023-03-03T15:00:32;1.73;;;1.33;;
53549;SDS011;67273;52.914;-0.982;2023-03-03T15:03:02;2.72;;;1.10;;
53549;SDS011;67273;52.914;-0.982;2023-03-03T15:05:47;3.00;;;1.10;;
53549;SDS011;67273;52.914;-0.982;2023-03-03T15:08:14;3.20;;;1.30;;
53549;SDS011;67273;52.914;-0.982;2023-03-03T15:10:40;1.95;;;1.30;;
53549;SDS011;67273;52.914;-0.982;2023-03-03T15:13:09;2.47;;;1.23;;
53549;SDS011;67273;52.914;-0.982;2023-03-03T15:15:50;1.50;;;1.08;;
53549;SDS011;67273;52.914;-0.982;2023-03-03T15:18:26;2.20;;;1.13;;
53549;SDS011;67273;52.914;-0.982;2023-03-03T15:20:54;1.52;;;1.10;;
53549;SDS011;67273;52.914;-0.982;2023-03-03T15:26:13;3.15;;;1.27;;
53549;SDS011;67273;52.914;-0.982;2023-03-03T15:28:52;1.40;;;1.10;;
53549;SDS011;67273;52.914;-0.982;2023-03-03T15:31:27;2.03;;;1.10;;